Time;durP1;ratioP1;P1;durP2;ratioP2;P2;SDS_P1;SDS_P2;PMS_P1;PMS_P2;Temp;Humidity;BMP_temperature;BMP_pressure;BME280_temperature;BME280_humidity;BME280_pressure;Samples;Min_cycle;Max_cycle;Signal;HPM_P1;HPM_P2
2022/01/22 00:02:21;;;;;;;0.33;0.20;;;;;;;;;;5022049;28;20032;-63
2022/01/22 00:04:46;;;;;;;1.03;0.23;;;;;;;;;;5030348;28;20042;-63
2022/01/22 00:07:12;;;;;;;1.07;0.40;;;;;;;;;;5032492;28;20177;-63
2022/01/22 00:09:39;;;;;;;0.37;0.30;;;;;;;;;;5043974;28;20397;-63
2022/01/22 00:12:07;;;;;;;0.67;0.50;;;;;;;;;;5043945;28;20036;-63
2022/01/22 00:14:32;;;;;;;0.60;0.30;;;;;;;;;;5028252;28;20105;-64
2022/01/22 00:16:58;;;;;;;0.40;0.37;;;;;;;;;;5026458;28;20562;-64
2022/01/22 00:19:24;;;;;;;0.40;0.30;;;;;;;;;;5020537;28;20059;-63
2022/01/22 00:21:49;;;;;;;0.40;0.40;;;;;;;;;;5039235;28;20017;-63
2022/01/22 00:24:15;;;;;;;0.43;0.30;;;;;;;;;;5040164;28;20025;-64
2022/01/22 00:26:41;;;;;;;1.07;0.63;;;;;;;;;;5040671;28;20082;-64
2022/01/22 00:29:06;;;;;;;0.50;0.30;;;;;;;;;;5047480;28;20107;-64
2022/01/22 00:31:31;;;;;;;1.13;0.50;;;;;;;;;;5030500;28;20390;-64
2022/01/22 00:33:56;;;;;;;0.80;0.60;;;;;;;;;;5031123;28;20171;-64
2022/01/22 00:36:21;;;;;;;2.00;0.80;;;;;;;;;;5030389;28;20028;-63
2022/01/22 00:38:47;;;;;;;0.70;0.30;;;;;;;;;;5049237;28;20115;-64
2022/01/22 00:41:12;;;;;;;0.70;0.40;;;;;;;;;;5055597;28;20027;-63
2022/01/22 00:43:37;;;;;;;0.87;0.60;;;;;;;;;;5034090;28;20018;-63
2022/01/22 00:46:02;;;;;;;1.20;0.50;;;;;;;;;;5032085;28;20456;-64
2022/01/22 00:48:28;;;;;;;0.63;0.50;;;;;;;;;;5019794;28;20483;-63
2022/01/22 00:50:56;;;;;;;0.93;0.70;;;;;;;;;;5016660;28;20026;-64
2022/01/22 00:53:21;;;;;;;1.00;0.63;;;;;;;;;;5035423;28;20028;-64
2022/01/22 00:55:46;;;;;;;1.47;0.60;;;;;;;;;;5033608;28;20477;-64
2022/01/22 00:58:12;;;;;;;1.50;1.10;;;;;;;;;;5054388;28;20480;-64
2022/01/22 01:00:37;;;;;;;1.93;1.20;;;;;;;;;;5041373;28;20032;-64
2022/01/22 01:03:02;;;;;;;2.07;1.13;;;;;;;;;;5035475;28;20033;-64
2022/01/22 01:05:28;;;;;;;3.67;1.77;;;;;;;;;;5033826;28;20022;-64
2022/01/22 01:07:53;;;;;;;1.50;1.27;;;;;;;;;;5033329;28;20436;-64
2022/01/22 01:10:19;;;;;;;2.17;1.50;;;;;;;;;;5033781;28;20020;-64
2022/01/22 01:12:46;;;;;;;2.23;1.50;;;;;;;;;;5026067;28;20022;-64
2022/01/22 01:33:57;;;;;;;1.30;0.90;;;;;;;;;;5029534;28;20040;-64
2022/01/22 01:36:22;;;;;;;1.70;1.30;;;;;;;;;;5035060;28;20061;-64
2022/01/22 01:38:53;;;;;;;0.77;0.50;;;;;;;;;;5051448;28;20056;-63
2022/01/22 01:41:37;;;;;;;0.73;0.53;;;;;;;;;;5031910;28;20095;-64
2022/01/22 01:44:02;;;;;;;2.00;1.07;;;;;;;;;;5030187;28;20069;-63
2022/01/22 01:46:30;;;;;;;2.07;1.40;;;;;;;;;;5026402;28;20413;-64
2022/01/22 01:48:56;;;;;;;1.13;0.80;;;;;;;;;;5034532;28;20044;-64
2022/01/22 01:51:25;;;;;;;0.63;0.60;;;;;;;;;;5034926;28;20090;-63
2022/01/22 01:54:03;;;;;;;0.83;0.60;;;;;;;;;;5016929;28;20045;-64
2022/01/22 01:59:15;;;;;;;0.55;0.38;;;;;;;;;;5032263;28;20049;-64
2022/01/22 02:01:40;;;;;;;0.60;0.50;;;;;;;;;;5034794;28;20025;-64
2022/01/22 02:04:08;;;;;;;1.80;1.23;;;;;;;;;;5034344;28;20024;-64
2022/01/22 02:06:33;;;;;;;0.90;0.60;;;;;;;;;;5052063;28;20456;-64
2022/01/22 02:08:59;;;;;;;1.67;1.03;;;;;;;;;;5034462;28;20057;-64
2022/01/22 02:11:26;;;;;;;0.90;0.70;;;;;;;;;;5050230;28;20031;-64
2022/01/22 02:24:42;;;;;;;1.07;0.90;;;;;;;;;;5061498;28;20047;-64
2022/01/22 02:27:08;;;;;;;0.60;0.60;;;;;;;;;;5033963;28;20013;-64
2022/01/22 02:29:33;;;;;;;0.73;0.57;;;;;;;;;;5032387;28;20025;-64
2022/01/22 02:34:53;;;;;;;1.00;0.70;;;;;;;;;;5045255;28;20097;-65
2022/01/22 02:37:20;;;;;;;1.10;0.80;;;;;;;;;;5037770;28;20037;-65
2022/01/22 02:39:59;;;;;;;0.73;0.60;;;;;;;;;;5041722;28;20026;-65
2022/01/22 02:42:29;;;;;;;0.73;0.63;;;;;;;;;;5015437;28;20023;-66
2022/01/22 02:44:55;;;;;;;1.17;0.90;;;;;;;;;;5019831;28;20014;-65
2022/01/22 02:47:20;;;;;;;0.83;0.63;;;;;;;;;;5041591;28;20542;-65
2022/01/22 02:49:46;;;;;;;0.93;0.70;;;;;;;;;;5031940;28;20482;-65
2022/01/22 02:52:11;;;;;;;1.20;0.70;;;;;;;;;;5015619;28;20029;-65
2022/01/22 02:54:37;;;;;;;1.17;0.70;;;;;;;;;;5032143;28;20091;-65
2022/01/22 02:57:03;;;;;;;0.80;0.50;;;;;;;;;;5033031;28;20033;-65
2022/01/22 02:59:28;;;;;;;1.47;1.07;;;;;;;;;;5027592;28;20026;-65
2022/01/22 03:01:53;;;;;;;1.77;1.27;;;;;;;;;;5032674;28;20025;-65
2022/01/22 03:04:19;;;;;;;0.90;0.63;;;;;;;;;;5033387;28;20030;-65
2022/01/22 03:06:44;;;;;;;1.70;1.33;;;;;;;;;;5032116;28;20395;-65
2022/01/22 03:09:12;;;;;;;1.37;1.03;;;;;;;;;;5044534;28;20389;-64
2022/01/22 03:11:47;;;;;;;1.50;1.00;;;;;;;;;;5040059;28;20084;-64
2022/01/22 03:22:54;;;;;;;1.10;0.80;;;;;;;;;;5040515;28;20559;-64
2022/01/22 03:27:56;;;;;;;1.00;0.70;;;;;;;;;;5034001;28;20056;-65
2022/01/22 03:30:22;;;;;;;0.67;0.47;;;;;;;;;;5032538;28;20021;-64
2022/01/22 03:32:51;;;;;;;1.03;0.30;;;;;;;;;;5032531;28;20044;-65
2022/01/22 03:37:45;;;;;;;0.60;0.43;;;;;;;;;;5032406;28;20052;-65
2022/01/22 03:40:12;;;;;;;0.63;0.50;;;;;;;;;;5030667;28;20034;-65
2022/01/22 03:42:37;;;;;;;0.47;0.27;;;;;;;;;;5037826;28;20040;-64
2022/01/22 03:45:03;;;;;;;1.38;0.70;;;;;;;;;;5023012;28;20025;-64
2022/01/22 03:47:28;;;;;;;1.23;0.70;;;;;;;;;;5030442;28;20037;-64
2022/01/22 03:49:53;;;;;;;1.23;0.90;;;;;;;;;;5031195;28;20030;-64
2022/01/22 03:52:18;;;;;;;0.90;0.60;;;;;;;;;;5030307;28;20080;-65
2022/01/22 03:54:44;;;;;;;1.08;0.60;;;;;;;;;;5031795;28;20064;-65
2022/01/22 03:57:09;;;;;;;1.07;0.90;;;;;;;;;;5030855;28;20049;-65
2022/01/22 03:59:34;;;;;;;0.53;0.50;;;;;;;;;;5028296;28;20057;-65
2022/01/22 04:04:48;;;;;;;2.67;0.80;;;;;;;;;;5031252;28;20083;-65
2022/01/22 04:09:46;;;;;;;2.40;1.20;;;;;;;;;;5043210;28;20044;-65
2022/01/22 04:12:13;;;;;;;1.17;0.80;;;;;;;;;;5027838;28;20056;-65
2022/01/22 04:14:46;;;;;;;2.10;0.77;;;;;;;;;;5025595;28;20425;-65
2022/01/22 04:25:08;;;;;;;2.17;1.20;;;;;;;;;;5033874;28;20504;-65
2022/01/22 04:27:34;;;;;;;2.63;1.23;;;;;;;;;;5032184;28;20498;-65
2022/01/22 04:29:59;;;;;;;4.60;1.47;;;;;;;;;;5026265;28;20034;-65
2022/01/22 04:32:29;;;;;;;4.83;1.43;;;;;;;;;;5025785;28;20060;-65
2022/01/22 04:34:54;;;;;;;1.87;0.80;;;;;;;;;;5035040;28;20500;-65
2022/01/22 04:37:20;;;;;;;2.60;1.00;;;;;;;;;;5031767;28;20108;-65
2022/01/22 04:39:46;;;;;;;3.88;0.95;;;;;;;;;;5029593;28;20437;-65
2022/01/22 04:42:12;;;;;;;2.30;1.17;;;;;;;;;;5027658;28;20024;-64
2022/01/22 04:44:45;;;;;;;3.77;0.70;;;;;;;;;;5019743;28;20394;-65
2022/01/22 04:54:58;;;;;;;1.40;0.90;;;;;;;;;;5032486;28;20071;-65
2022/01/22 04:57:24;;;;;;;2.65;1.95;;;;;;;;;;5014054;28;20092;-65
2022/01/22 04:59:49;;;;;;;1.67;1.13;;;;;;;;;;5025437;28;20030;-65
2022/01/22 05:02:14;;;;;;;2.63;1.57;;;;;;;;;;5030692;28;20091;-65
2022/01/22 05:04:39;;;;;;;4.53;2.50;;;;;;;;;;5037476;28;20017;-66
2022/01/22 05:07:04;;;;;;;3.58;2.83;;;;;;;;;;5023093;28;20037;-66
2022/01/22 05:09:30;;;;;;;2.78;1.85;;;;;;;;;;5029746;28;20078;-65
2022/01/22 05:11:56;;;;;;;3.47;2.50;;;;;;;;;;5028395;28;20486;-65
2022/01/22 05:14:23;;;;;;;3.67;2.80;;;;;;;;;;5032910;28;20034;-66
2022/01/22 05:16:49;;;;;;;4.78;3.17;;;;;;;;;;5030319;28;20042;-66
2022/01/22 05:19:21;;;;;;;3.58;2.70;;;;;;;;;;5030021;28;20029;-66
2022/01/22 05:21:48;;;;;;;2.60;1.80;;;;;;;;;;5027987;28;20394;-65
2022/01/22 05:24:18;;;;;;;4.32;2.55;;;;;;;;;;5028655;28;20032;-65
2022/01/22 05:29:55;;;;;;;2.88;2.35;;;;;;;;;;5033503;28;20374;-65
2022/01/22 05:37:44;;;;;;;1.65;0.90;;;;;;;;;;5034061;28;20397;-66
2022/01/22 05:40:09;;;;;;;0.68;0.50;;;;;;;;;;5037512;28;20018;-66
2022/01/22 05:42:36;;;;;;;1.27;0.40;;;;;;;;;;5029551;28;20021;-66
2022/01/22 05:45:02;;;;;;;1.50;0.60;;;;;;;;;;5031712;28;20486;-67
2022/01/22 05:47:29;;;;;;;0.55;0.40;;;;;;;;;;5030980;28;20018;-67
2022/01/22 05:49:54;;;;;;;0.80;0.40;;;;;;;;;;5034002;28;20037;-66
2022/01/22 05:52:29;;;;;;;0.43;0.30;;;;;;;;;;5028654;28;20017;-66
2022/01/22 06:00:07;;;;;;;0.90;0.40;;;;;;;;;;5033746;28;20036;-65
2022/01/22 06:02:32;;;;;;;1.27;0.83;;;;;;;;;;5032743;28;20025;-66
2022/01/22 06:04:57;;;;;;;0.40;0.20;;;;;;;;;;5030868;28;20029;-66
2022/01/22 06:07:23;;;;;;;3.20;0.30;;;;;;;;;;5032301;28;20033;-66
2022/01/22 06:13:11;;;;;;;0.47;0.20;;;;;;;;;;5026777;28;20033;-66
2022/01/22 06:15:13;;;;;;;1.77;0.30;;;;;;;;;;5029270;28;20100;-66
2022/01/22 06:17:38;;;;;;;0.63;0.30;;;;;;;;;;5033863;28;20458;-66
2022/01/22 06:20:04;;;;;;;1.03;0.20;;;;;;;;;;5034852;28;20017;-65
2022/01/22 06:22:30;;;;;;;1.10;0.40;;;;;;;;;;5029789;28;20100;-65
2022/01/22 06:24:56;;;;;;;0.40;0.30;;;;;;;;;;5034061;28;20541;-66
2022/01/22 06:27:21;;;;;;;2.47;0.60;;;;;;;;;;5033430;28;20427;-66
2022/01/22 06:29:46;;;;;;;1.17;0.40;;;;;;;;;;5033238;28;20538;-66
2022/01/22 06:32:12;;;;;;;2.10;0.77;;;;;;;;;;5035441;28;20456;-66
2022/01/22 06:34:37;;;;;;;1.40;0.67;;;;;;;;;;5031839;28;20413;-66
2022/01/22 06:37:02;;;;;;;1.80;0.77;;;;;;;;;;5014862;28;20098;-65
2022/01/22 06:39:28;;;;;;;2.30;0.90;;;;;;;;;;5033724;28;20024;-65
2022/01/22 06:41:53;;;;;;;1.87;1.17;;;;;;;;;;5013483;28;20029;-65
2022/01/22 06:44:18;;;;;;;4.80;1.40;;;;;;;;;;5029927;28;20018;-65
2022/01/22 06:46:45;;;;;;;3.97;1.93;;;;;;;;;;5047708;28;20033;-65
2022/01/22 06:49:10;;;;;;;3.67;2.33;;;;;;;;;;5033765;28;20021;-65
2022/01/22 06:51:35;;;;;;;3.50;1.53;;;;;;;;;;5028891;28;20458;-65
2022/01/22 06:54:02;;;;;;;6.70;2.17;;;;;;;;;;5030154;28;20051;-65
2022/01/22 06:56:29;;;;;;;5.27;1.93;;;;;;;;;;5029865;28;20041;-65
2022/01/22 06:58:55;;;;;;;4.83;2.20;;;;;;;;;;5030894;28;20022;-65
2022/01/22 07:01:20;;;;;;;4.97;2.10;;;;;;;;;;5031554;28;20025;-66
2022/01/22 07:03:45;;;;;;;6.10;2.43;;;;;;;;;;5031101;28;20095;-65
2022/01/22 07:06:11;;;;;;;6.37;3.10;;;;;;;;;;5040080;28;20029;-65
2022/01/22 07:08:36;;;;;;;6.37;2.90;;;;;;;;;;5029256;28;20026;-66
2022/01/22 07:11:01;;;;;;;8.63;3.00;;;;;;;;;;5032190;28;20026;-66
2022/01/22 07:13:26;;;;;;;6.80;3.10;;;;;;;;;;5024557;28;20025;-66
2022/01/22 07:15:52;;;;;;;6.60;3.33;;;;;;;;;;5028244;28;20491;-66
2022/01/22 07:18:17;;;;;;;6.83;3.47;;;;;;;;;;5028178;28;20517;-67
2022/01/22 07:20:43;;;;;;;10.55;4.88;;;;;;;;;;5031485;28;20028;-66
2022/01/22 07:25:43;;;;;;;6.82;3.53;;;;;;;;;;5029286;28;20021;-66
2022/01/22 07:28:09;;;;;;;7.40;3.35;;;;;;;;;;5030064;28;20024;-66
2022/01/22 07:30:35;;;;;;;6.43;3.05;;;;;;;;;;5030362;28;20035;-66
2022/01/22 07:33:00;;;;;;;6.70;3.22;;;;;;;;;;5032876;28;20104;-66
2022/01/22 07:35:25;;;;;;;8.23;3.40;;;;;;;;;;5026883;28;20013;-66
2022/01/22 07:37:50;;;;;;;7.43;3.50;;;;;;;;;;5031018;28;20025;-66
2022/01/22 07:40:15;;;;;;;5.82;3.00;;;;;;;;;;5030597;28;20022;-65
2022/01/22 07:42:41;;;;;;;7.85;2.83;;;;;;;;;;5024101;28;20050;-65
2022/01/22 07:45:07;;;;;;;7.10;3.08;;;;;;;;;;5028379;28;20036;-65
2022/01/22 07:47:32;;;;;;;9.23;3.60;;;;;;;;;;5026181;28;20060;-65
2022/01/22 07:49:58;;;;;;;8.07;3.65;;;;;;;;;;5030083;28;20061;-65
2022/01/22 07:52:23;;;;;;;6.97;3.20;;;;;;;;;;5031989;28;20437;-65
2022/01/22 07:54:48;;;;;;;5.82;3.50;;;;;;;;;;5033426;28;20120;-65
2022/01/22 07:57:14;;;;;;;7.57;3.00;;;;;;;;;;5023238;28;20125;-65
2022/01/22 07:59:39;;;;;;;6.20;2.93;;;;;;;;;;5027949;28;20025;-65
2022/01/22 08:02:04;;;;;;;7.68;3.13;;;;;;;;;;5029131;28;20025;-65
2022/01/22 08:04:30;;;;;;;5.22;2.95;;;;;;;;;;5029008;28;20433;-65
2022/01/22 08:06:56;;;;;;;7.77;3.33;;;;;;;;;;5031412;28;20032;-65
2022/01/22 08:09:21;;;;;;;5.60;2.23;;;;;;;;;;5029154;28;20032;-66
2022/01/22 08:11:46;;;;;;;5.90;4.17;;;;;;;;;;5027987;28;20033;-65
2022/01/22 08:14:12;;;;;;;9.23;4.57;;;;;;;;;;5021740;28;20071;-65
2022/01/22 08:16:37;;;;;;;10.77;4.93;;;;;;;;;;5027545;28;20284;-65
2022/01/22 08:19:03;;;;;;;13.63;6.28;;;;;;;;;;5026410;28;20017;-65
2022/01/22 08:21:28;;;;;;;17.77;8.52;;;;;;;;;;5023713;28;20057;-67
2022/01/22 08:23:53;;;;;;;5.78;3.45;;;;;;;;;;5024194;28;20025;-66
2022/01/22 08:26:23;;;;;;;11.07;5.40;;;;;;;;;;5030579;28;20112;-66
2022/01/22 08:28:55;;;;;;;10.20;4.73;;;;;;;;;;5019551;28;20116;-66
2022/01/22 08:36:44;;;;;;;6.28;3.03;;;;;;;;;;5012672;28;20092;-65
2022/01/22 08:39:09;;;;;;;8.03;4.30;;;;;;;;;;5024745;28;20052;-65
2022/01/22 08:41:35;;;;;;;9.27;4.20;;;;;;;;;;5027880;28;20064;-65
2022/01/22 08:44:00;;;;;;;6.43;3.25;;;;;;;;;;5021556;28;20021;-64
2022/01/22 08:46:26;;;;;;;7.65;3.17;;;;;;;;;;5006306;28;20493;-65
2022/01/22 08:48:52;;;;;;;5.90;3.03;;;;;;;;;;5028520;28;20033;-65
2022/01/22 08:51:17;;;;;;;8.55;3.85;;;;;;;;;;5008267;28;20080;-65
2022/01/22 08:53:42;;;;;;;5.05;3.30;;;;;;;;;;5020291;28;20025;-65
2022/01/22 08:56:09;;;;;;;8.43;4.00;;;;;;;;;;5004596;28;20056;-65
2022/01/22 08:58:34;;;;;;;9.00;3.70;;;;;;;;;;5014361;28;20072;-65
2022/01/22 09:01:00;;;;;;;7.25;3.90;;;;;;;;;;5023556;28;20469;-65
2022/01/22 09:03:25;;;;;;;10.18;4.30;;;;;;;;;;5026333;28;20634;-65
2022/01/22 09:05:51;;;;;;;10.30;4.57;;;;;;;;;;5025148;28;20112;-65
2022/01/22 09:08:16;;;;;;;8.95;4.80;;;;;;;;;;5024768;28;20028;-65
2022/01/22 09:10:42;;;;;;;7.57;4.78;;;;;;;;;;5031687;28;20025;-65
2022/01/22 09:13:08;;;;;;;12.18;5.93;;;;;;;;;;5019099;28;20029;-65
2022/01/22 09:15:33;;;;;;;8.73;4.88;;;;;;;;;;5021471;28;20029;-65
2022/01/22 09:17:58;;;;;;;9.43;5.53;;;;;;;;;;5025776;28;20030;-64
2022/01/22 09:23:04;;;;;;;9.82;6.20;;;;;;;;;;5022774;28;20140;-65
2022/01/22 09:25:29;;;;;;;8.52;5.30;;;;;;;;;;5019725;28;20029;-65
2022/01/22 09:27:55;;;;;;;12.65;6.55;;;;;;;;;;5033403;28;20083;-64
2022/01/22 09:30:20;;;;;;;7.65;5.85;;;;;;;;;;5026672;28;20029;-64
2022/01/22 09:32:46;;;;;;;9.48;6.22;;;;;;;;;;5034655;28;20453;-64
2022/01/22 09:35:11;;;;;;;12.25;6.72;;;;;;;;;;5033240;28;20017;-64
2022/01/22 09:37:36;;;;;;;13.38;8.00;;;;;;;;;;5032872;28;20025;-63
2022/01/22 09:40:01;;;;;;;10.57;6.75;;;;;;;;;;5030976;28;20018;-64
2022/01/22 09:42:27;;;;;;;10.48;5.88;;;;;;;;;;5027860;28;20581;-64
2022/01/22 09:44:53;;;;;;;12.85;6.70;;;;;;;;;;5031415;28;20055;-65
2022/01/22 09:47:19;;;;;;;12.20;6.63;;;;;;;;;;5031086;28;20122;-65
2022/01/22 09:49:44;;;;;;;11.77;5.82;;;;;;;;;;5034323;28;20512;-64
2022/01/22 09:52:09;;;;;;;10.85;4.90;;;;;;;;;;5032501;28;20030;-66
2022/01/22 09:54:35;;;;;;;10.50;6.45;;;;;;;;;;5027506;28;20462;-66
2022/01/22 09:57:03;;;;;;;9.15;5.30;;;;;;;;;;5017955;28;20064;-66
2022/01/22 09:59:29;;;;;;;6.53;4.15;;;;;;;;;;5031908;28;20041;-66
2022/01/22 10:02:06;;;;;;;6.38;4.07;;;;;;;;;;5033910;28;20018;-66
2022/01/22 10:04:35;;;;;;;11.25;5.07;;;;;;;;;;5049035;28;20109;-66
2022/01/22 10:07:00;;;;;;;6.63;5.15;;;;;;;;;;5031963;28;20441;-66
2022/01/22 10:09:27;;;;;;;8.35;4.78;;;;;;;;;;5013989;28;20025;-66
2022/01/22 10:12:12;;;;;;;10.25;5.60;;;;;;;;;;5030018;28;20021;-65
2022/01/22 10:14:56;;;;;;;8.77;5.25;;;;;;;;;;5017315;28;20022;-65
2022/01/22 10:17:40;;;;;;;6.93;5.15;;;;;;;;;;5030115;28;20474;-66
2022/01/22 10:20:27;;;;;;;8.50;5.45;;;;;;;;;;5030461;28;20026;-65
2022/01/22 10:22:53;;;;;;;10.48;5.55;;;;;;;;;;5033079;28;20099;-65
2022/01/22 10:25:28;;;;;;;9.40;6.25;;;;;;;;;;5031955;28;20033;-65
2022/01/22 10:28:03;;;;;;;8.70;5.75;;;;;;;;;;5029751;28;20097;-65
2022/01/22 10:30:40;;;;;;;;;;;;;;;;;;5024898;28;20600;-65
2022/01/22 10:33:21;;;;;;;8.13;5.47;;;;;;;;;;5024976;28;19956;-65
2022/01/22 10:35:46;;;;;;;7.68;5.18;;;;;;;;;;5042103;28;20074;-65
2022/01/22 10:38:12;;;;;;;10.65;5.55;;;;;;;;;;5031933;28;20116;-65
2022/01/22 10:40:38;;;;;;;7.20;4.85;;;;;;;;;;5032828;28;20493;-65
2022/01/22 10:43:10;;;;;;;7.13;5.15;;;;;;;;;;5023933;28;20026;-65
2022/01/22 10:45:39;;;;;;;11.43;5.68;;;;;;;;;;5031339;28;20445;-65
2022/01/22 10:48:15;;;;;;;12.18;5.00;;;;;;;;;;5031381;28;20100;-64
2022/01/22 10:50:40;;;;;;;6.47;4.45;;;;;;;;;;5033328;28;20034;-65
2022/01/22 10:53:05;;;;;;;7.65;4.68;;;;;;;;;;5033371;28;20528;-65
2022/01/22 10:55:31;;;;;;;9.25;4.68;;;;;;;;;;5031839;28;20045;-64
2022/01/22 10:58:08;;;;;;;7.28;4.65;;;;;;;;;;5030737;28;20108;-65
2022/01/22 11:00:34;;;;;;;7.15;4.53;;;;;;;;;;5032679;28;20018;-64
2022/01/22 11:03:17;;;;;;;12.10;5.47;;;;;;;;;;5033087;28;20018;-64
2022/01/22 11:05:42;;;;;;;7.25;4.05;;;;;;;;;;5032652;28;20064;-64
2022/01/22 11:08:08;;;;;;;5.85;3.20;;;;;;;;;;5031080;28;20065;-64
2022/01/22 11:10:34;;;;;;;8.07;4.10;;;;;;;;;;5016991;28;20030;-64
2022/01/22 11:12:59;;;;;;;7.88;3.75;;;;;;;;;;5015018;28;20029;-64
2022/01/22 11:15:24;;;;;;;6.78;3.30;;;;;;;;;;5027179;28;20032;-64
2022/01/22 11:17:49;;;;;;;8.80;3.70;;;;;;;;;;5024308;28;20029;-64
2022/01/22 11:20:15;;;;;;;8.02;3.55;;;;;;;;;;5030355;28;20033;-64
2022/01/22 11:22:40;;;;;;;5.25;3.33;;;;;;;;;;5022146;28;20018;-64
2022/01/22 11:25:07;;;;;;;5.70;3.78;;;;;;;;;;5028117;28;20537;-64
2022/01/22 11:27:36;;;;;;;7.60;3.70;;;;;;;;;;5016293;28;20478;-64
2022/01/22 11:30:05;;;;;;;7.70;4.38;;;;;;;;;;5026617;28;20474;-64
2022/01/22 11:32:33;;;;;;;10.57;4.75;;;;;;;;;;5019094;28;20029;-64
2022/01/22 11:35:00;;;;;;;6.07;2.90;;;;;;;;;;5032635;28;20030;-64
2022/01/22 11:37:44;;;;;;;6.10;3.05;;;;;;;;;;5020689;28;20022;-64
2022/01/22 11:40:20;;;;;;;8.15;3.85;;;;;;;;;;5040392;28;20033;-64
2022/01/22 11:43:08;;;;;;;7.55;4.05;;;;;;;;;;5012823;28;20022;-64
2022/01/22 11:45:36;;;;;;;5.28;3.00;;;;;;;;;;5026091;28;20025;-64
2022/01/22 11:48:08;;;;;;;3.75;2.55;;;;;;;;;;5019996;28;20041;-64
2022/01/22 11:50:34;;;;;;;6.28;2.78;;;;;;;;;;5016081;28;20544;-64
2022/01/22 11:53:19;;;;;;;5.75;2.53;;;;;;;;;;5025466;28;20124;-64
2022/01/22 11:56:04;;;;;;;7.03;3.65;;;;;;;;;;5024150;28;20514;-64
2022/01/22 11:58:29;;;;;;;4.68;2.78;;;;;;;;;;5022072;28;20067;-64
2022/01/22 12:00:54;;;;;;;4.43;2.90;;;;;;;;;;5021522;28;20030;-64
2022/01/22 12:03:20;;;;;;;4.60;2.60;;;;;;;;;;5021201;28;20029;-64
2022/01/22 12:05:54;;;;;;;2.92;1.90;;;;;;;;;;5025330;28;20440;-64
2022/01/22 12:08:23;;;;;;;3.33;1.65;;;;;;;;;;5036661;28;20017;-64
2022/01/22 12:16:17;;;;;;;1.30;0.85;;;;;;;;;;5031525;28;20059;-64
2022/01/22 12:18:56;;;;;;;2.95;1.08;;;;;;;;;;5012126;28;20022;-64
2022/01/22 12:23:54;;;;;;;3.00;1.00;;;;;;;;;;5028216;28;20111;-64
2022/01/22 12:26:39;;;;;;;1.73;1.08;;;;;;;;;;5026983;28;20036;-64
2022/01/22 12:29:24;;;;;;;2.88;1.02;;;;;;;;;;5031005;28;20146;-64
2022/01/22 12:32:08;;;;;;;1.55;1.02;;;;;;;;;;5027055;28;20029;-64
2022/01/22 12:34:52;;;;;;;2.80;1.08;;;;;;;;;;5029250;28;20017;-64
2022/01/22 12:37:19;;;;;;;2.40;1.25;;;;;;;;;;5029859;28;20018;-64
2022/01/22 12:39:49;;;;;;;3.10;1.77;;;;;;;;;;5027244;28;20073;-64
2022/01/22 12:42:23;;;;;;;2.00;1.27;;;;;;;;;;5027698;28;20351;-64
2022/01/22 12:44:56;;;;;;;4.28;1.20;;;;;;;;;;5041752;28;20047;-64
2022/01/22 12:47:21;;;;;;;3.42;1.05;;;;;;;;;;5035687;28;20025;-65
2022/01/22 12:49:57;;;;;;;5.35;1.65;;;;;;;;;;5028925;28;20029;-63
2022/01/22 12:52:25;;;;;;;3.53;1.90;;;;;;;;;;5028427;28;20029;-64
2022/01/22 12:54:56;;;;;;;4.28;2.10;;;;;;;;;;5029172;28;20060;-64
2022/01/22 12:57:24;;;;;;;2.95;1.73;;;;;;;;;;5028683;28;20053;-64
2022/01/22 13:00:09;;;;;;;3.83;2.30;;;;;;;;;;5030638;28;20034;-65
2022/01/22 13:02:35;;;;;;;;;;;;;;;;;;5032071;28;20421;-64
2022/01/22 13:05:00;;;;;;;3.47;1.88;;;;;;;;;;5023150;28;20008;-64
2022/01/22 13:07:26;;;;;;;3.53;1.92;;;;;;;;;;5028905;28;20056;-64
2022/01/22 13:09:56;;;;;;;2.75;1.48;;;;;;;;;;5023252;28;20022;-64
2022/01/22 13:12:22;;;;;;;2.63;1.95;;;;;;;;;;5018902;28;20402;-63
2022/01/22 13:14:53;;;;;;;3.90;1.85;;;;;;;;;;5020921;28;20749;-64
2022/01/22 13:17:18;;;;;;;3.28;1.60;;;;;;;;;;5020722;28;20026;-64
2022/01/22 13:19:43;;;;;;;5.40;2.15;;;;;;;;;;5022783;28;20068;-63
2022/01/22 13:22:09;;;;;;;3.90;1.70;;;;;;;;;;5007082;28;20142;-64
2022/01/22 13:24:36;;;;;;;6.13;2.38;;;;;;;;;;5023948;28;20561;-65
2022/01/22 13:27:10;;;;;;;4.53;2.30;;;;;;;;;;5016781;28;20038;-63
2022/01/22 13:29:39;;;;;;;2.35;1.50;;;;;;;;;;5021432;28;21396;-63
2022/01/22 13:32:13;;;;;;;3.90;2.03;;;;;;;;;;5021822;28;20108;-64
2022/01/22 13:35:51;;;;;;;4.32;2.10;;;;;;;;;;5027713;28;20057;-64
2022/01/22 13:48:47;;;;;;;3.08;1.58;;;;;;;;;;5032148;28;20064;-64
2022/01/22 13:51:12;;;;;;;3.70;1.65;;;;;;;;;;5031221;28;20057;-64
2022/01/22 13:53:39;;;;;;;2.05;1.30;;;;;;;;;;5027995;28;20018;-64
2022/01/22 13:56:07;;;;;;;3.75;1.85;;;;;;;;;;5032724;28;20512;-63
2022/01/22 13:58:32;;;;;;;3.65;1.52;;;;;;;;;;5031059;28;20071;-63
2022/01/22 14:01:04;;;;;;;4.78;1.40;;;;;;;;;;5039687;28;20017;-63
2022/01/22 14:03:37;;;;;;;2.38;1.42;;;;;;;;;;5020780;28;20037;-63
2022/01/22 14:06:02;;;;;;;4.47;2.00;;;;;;;;;;5015064;28;20104;-63
2022/01/22 14:08:34;;;;;;;4.72;2.00;;;;;;;;;;5036368;28;20498;-63
2022/01/22 14:11:03;;;;;;;5.05;1.88;;;;;;;;;;5025094;28;20421;-63
2022/01/22 14:13:28;;;;;;;3.70;1.90;;;;;;;;;;5025622;28;20029;-63
2022/01/22 14:15:53;;;;;;;3.38;1.58;;;;;;;;;;5032797;28;20018;-63
2022/01/22 14:18:20;;;;;;;4.43;1.88;;;;;;;;;;5030754;28;20033;-63
2022/01/22 14:20:49;;;;;;;2.50;1.77;;;;;;;;;;5036427;28;20389;-63
2022/01/22 14:23:18;;;;;;;2.70;1.48;;;;;;;;;;5032325;28;20100;-65
2022/01/22 14:25:54;;;;;;;2.15;1.30;;;;;;;;;;5031661;28;20025;-64
2022/01/22 14:28:20;;;;;;;2.47;1.38;;;;;;;;;;5028008;28;20026;-65
2022/01/22 14:30:46;;;;;;;3.25;1.52;;;;;;;;;;5030818;28;20039;-65
2022/01/22 14:33:13;;;;;;;2.90;1.67;;;;;;;;;;5032136;28;20057;-65
2022/01/22 14:35:39;;;;;;;2.75;1.50;;;;;;;;;;5027096;28;20124;-65
2022/01/22 14:38:32;;;;;;;1.50;1.23;;;;;;;;;;5024265;28;20112;-65
2022/01/22 14:44:03;;;;;;;4.10;1.75;;;;;;;;;;5020562;28;20060;-64
2022/01/22 14:47:05;;;;;;;2.53;1.88;;;;;;;;;;5027522;28;20021;-64
2022/01/22 14:49:32;;;;;;;3.65;2.13;;;;;;;;;;5017033;28;20116;-64
2022/01/22 14:51:57;;;;;;;4.22;2.42;;;;;;;;;;5024948;28;20028;-65
2022/01/22 14:54:23;;;;;;;3.38;2.40;;;;;;;;;;5011696;28;20030;-65
2022/01/22 14:56:49;;;;;;;3.20;2.08;;;;;;;;;;5023752;28;20111;-65
2022/01/22 14:59:14;;;;;;;3.97;2.33;;;;;;;;;;5010746;28;20030;-65
2022/01/22 15:01:39;;;;;;;3.92;2.28;;;;;;;;;;5020352;28;20486;-66
2022/01/22 15:04:04;;;;;;;4.05;2.28;;;;;;;;;;5018236;28;20018;-65
2022/01/22 15:06:30;;;;;;;6.32;2.60;;;;;;;;;;5034837;28;20080;-65
2022/01/22 15:08:55;;;;;;;5.68;2.97;;;;;;;;;;5024086;28;20060;-65
2022/01/22 15:11:20;;;;;;;3.58;3.20;;;;;;;;;;5023434;28;20036;-65
2022/01/22 15:13:46;;;;;;;3.85;3.10;;;;;;;;;;5019052;28;20375;-65
2022/01/22 15:16:16;;;;;;;3.55;3.25;;;;;;;;;;5027439;28;20109;-65
2022/01/22 15:21:06;;;;;;;7.15;5.15;;;;;;;;;;5023016;28;20052;-65
2022/01/22 15:23:31;;;;;;;7.70;4.97;;;;;;;;;;5023732;28;20026;-65
2022/01/22 15:25:56;;;;;;;7.15;4.90;;;;;;;;;;5025546;28;20017;-65
2022/01/22 15:28:24;;;;;;;5.75;4.78;;;;;;;;;;5027664;28;20421;-65
2022/01/22 15:30:51;;;;;;;7.85;4.85;;;;;;;;;;5022881;28;21945;-65
2022/01/22 15:33:23;;;;;;;8.25;4.97;;;;;;;;;;5022252;28;20021;-65
2022/01/22 15:35:49;;;;;;;5.28;4.68;;;;;;;;;;5019595;28;20042;-65
2022/01/22 15:38:14;;;;;;;6.78;5.10;;;;;;;;;;5029458;28;20041;-65
2022/01/22 15:40:41;;;;;;;7.68;5.07;;;;;;;;;;5026005;28;20034;-65
2022/01/22 15:43:07;;;;;;;5.43;4.45;;;;;;;;;;5021416;28;20381;-65
2022/01/22 15:45:35;;;;;;;5.82;5.15;;;;;;;;;;5037990;28;20025;-65
2022/01/22 15:48:00;;;;;;;6.45;4.53;;;;;;;;;;5035950;28;20032;-65
2022/01/22 15:50:26;;;;;;;6.93;5.60;;;;;;;;;;5031352;28;20026;-65
2022/01/22 15:52:51;;;;;;;8.35;5.45;;;;;;;;;;5030559;28;20104;-65
2022/01/22 15:55:16;;;;;;;7.35;4.68;;;;;;;;;;5024647;28;20036;-65
2022/01/22 15:57:42;;;;;;;8.05;5.10;;;;;;;;;;5052174;28;20051;-65
2022/01/22 16:00:09;;;;;;;7.82;5.05;;;;;;;;;;5037807;28;20466;-65
2022/01/22 16:02:36;;;;;;;7.38;5.10;;;;;;;;;;5034986;28;20028;-65
2022/01/22 16:05:01;;;;;;;8.18;5.22;;;;;;;;;;5028859;28;20029;-65
2022/01/22 16:07:27;;;;;;;7.15;5.00;;;;;;;;;;5026827;28;20033;-64
2022/01/22 16:09:53;;;;;;;6.05;4.50;;;;;;;;;;5020613;28;20485;-65
2022/01/22 16:12:18;;;;;;;8.43;4.57;;;;;;;;;;5018717;28;20029;-64
2022/01/22 16:14:44;;;;;;;8.40;4.63;;;;;;;;;;5035673;28;20099;-64
2022/01/22 16:17:09;;;;;;;7.05;4.20;;;;;;;;;;5031958;28;20060;-63
2022/01/22 16:19:38;;;;;;;8.05;5.18;;;;;;;;;;5030024;28;20021;-65
2022/01/22 16:22:03;;;;;;;7.25;4.97;;;;;;;;;;5031913;28;20032;-64
2022/01/22 16:24:30;;;;;;;9.20;4.60;;;;;;;;;;5029256;28;20041;-65
2022/01/22 16:26:56;;;;;;;7.03;4.70;;;;;;;;;;5027607;28;20299;-64
2022/01/22 16:29:25;;;;;;;10.23;4.68;;;;;;;;;;5027862;28;20056;-65
2022/01/22 16:31:50;;;;;;;6.93;4.80;;;;;;;;;;5027473;28;20052;-65
2022/01/22 16:34:15;;;;;;;6.82;5.25;;;;;;;;;;5025682;28;20558;-65
2022/01/22 16:36:40;;;;;;;10.15;5.70;;;;;;;;;;5023115;28;20383;-65
2022/01/22 16:39:06;;;;;;;9.15;5.85;;;;;;;;;;5024881;28;20025;-65
2022/01/22 16:41:33;;;;;;;10.57;5.72;;;;;;;;;;5035740;28;20386;-65
2022/01/22 16:44:12;;;;;;;10.45;6.05;;;;;;;;;;5033520;28;20430;-65
2022/01/22 16:51:18;;;;;;;11.05;6.07;;;;;;;;;;5018734;28;20032;-65
2022/01/22 16:55:07;;;;;;;9.55;7.35;;;;;;;;;;5019758;28;20087;-65